sensor_id;sensor_type;location;lat;lon;timestamp;temperature;humidity
26655;DHT22;14278;50.784;4.630;2023-02-12T00:00:42;9.50;99.90
26655;DHT22;14278;50.784;4.630;2023-02-12T00:03:08;9.40;99.90
26655;DHT22;14278;50.784;4.630;2023-02-12T00:05:36;9.10;99.90
26655;DHT22;14278;50.784;4.630;2023-02-12T00:08:02;9.00;99.90
26655;DHT22;14278;50.784;4.630;2023-02-12T00:10:28;9.00;99.90
26655;DHT22;14278;50.784;4.630;2023-02-12T00:12:55;9.10;99.90
26655;DHT22;14278;50.784;4.630;2023-02-12T00:15:21;9.10;99.90
26655;DHT22;14278;50.784;4.630;2023-02-12T00:17:47;9.10;99.90
26655;DHT22;14278;50.784;4.630;2023-02-12T00:20:12;9.50;99.90
26655;DHT22;14278;50.784;4.630;2023-02-12T00:22:38;9.50;99.90
26655;DHT22;14278;50.784;4.630;2023-02-12T00:25:05;9.50;99.90
26655;DHT22;14278;50.784;4.630;2023-02-12T00:27:34;9.50;99.90
26655;DHT22;14278;50.784;4.630;2023-02-12T00:30:00;9.50;99.90
26655;DHT22;14278;50.784;4.630;2023-02-12T00:32:27;9.50;99.90
26655;DHT22;14278;50.784;4.630;2023-02-12T00:34:52;9.40;99.90
26655;DHT22;14278;50.784;4.630;2023-02-12T00:37:19;9.50;99.90
26655;DHT22;14278;50.784;4.630;2023-02-12T00:39:45;9.40;99.90
26655;DHT22;14278;50.784;4.630;2023-02-12T00:42:11;9.60;99.90
26655;DHT22;14278;50.784;4.630;2023-02-12T00:44:37;9.70;99.90
26655;DHT22;14278;50.784;4.630;2023-02-12T00:47:03;9.90;99.90
26655;DHT22;14278;50.784;4.630;2023-02-12T00:49:30;9.80;99.90
26655;DHT22;14278;50.784;4.630;2023-02-12T00:52:00;9.60;99.90
26655;DHT22;14278;50.784;4.630;2023-02-12T00:54:27;9.10;99.90
26655;DHT22;14278;50.784;4.630;2023-02-12T00:56:54;9.40;99.90
26655;DHT22;14278;50.784;4.630;2023-02-12T00:59:21;9.80;99.90
26655;DHT22;14278;50.784;4.630;2023-02-12T01:01:48;9.80;99.90
26655;DHT22;14278;50.784;4.630;2023-02-12T01:04:14;9.70;99.90
26655;DHT22;14278;50.784;4.630;2023-02-12T01:06:40;9.60;99.90
26655;DHT22;14278;50.784;4.630;2023-02-12T01:09:06;9.40;99.90
26655;DHT22;14278;50.784;4.630;2023-02-12T01:11:32;9.30;99.90
26655;DHT22;14278;50.784;4.630;2023-02-12T01:13:58;9.70;99.90
26655;DHT22;14278;50.784;4.630;2023-02-12T01:16:24;9.80;99.90
26655;DHT22;14278;50.784;4.630;2023-02-12T01:18:52;9.80;99.90
26655;DHT22;14278;50.784;4.630;2023-02-12T01:21:29;9.80;99.90
26655;DHT22;14278;50.784;4.630;2023-02-12T01:23:56;9.30;99.90
26655;DHT22;14278;50.784;4.630;2023-02-12T01:26:24;9.20;99.90
26655;DHT22;14278;50.784;4.630;2023-02-12T01:28:55;8.90;99.90
26655;DHT22;14278;50.784;4.630;2023-02-12T01:31:24;9.30;99.90
26655;DHT22;14278;50.784;4.630;2023-02-12T01:33:53;9.00;99.90
26655;DHT22;14278;50.784;4.630;2023-02-12T01:36:19;9.50;99.90
26655;DHT22;14278;50.784;4.630;2023-02-12T01:38:47;9.50;99.90
26655;DHT22;14278;50.784;4.630;2023-02-12T01:41:16;9.40;99.90
26655;DHT22;14278;50.784;4.630;2023-02-12T01:43:45;9.20;99.90
26655;DHT22;14278;50.784;4.630;2023-02-12T01:46:14;9.30;99.90
26655;DHT22;14278;50.784;4.630;2023-02-12T01:48:44;9.30;99.90
26655;DHT22;14278;50.784;4.630;2023-02-12T01:51:15;9.00;99.90
26655;DHT22;14278;50.784;4.630;2023-02-12T01:53:49;9.30;99.90
26655;DHT22;14278;50.784;4.630;2023-02-12T01:56:16;9.30;99.90
26655;DHT22;14278;50.784;4.630;2023-02-12T01:58:46;9.40;99.90
26655;DHT22;14278;50.784;4.630;2023-02-12T02:01:20;9.00;99.90
26655;DHT22;14278;50.784;4.630;2023-02-12T02:03:50;8.70;99.90
26655;DHT22;14278;50.784;4.630;2023-02-12T02:06:25;8.50;99.90
26655;DHT22;14278;50.784;4.630;2023-02-12T02:08:52;8.70;99.90
26655;DHT22;14278;50.784;4.630;2023-02-12T02:11:19;9.00;99.90
26655;DHT22;14278;50.784;4.630;2023-02-12T02:14:04;9.20;99.90
26655;DHT22;14278;50.784;4.630;2023-02-12T02:17:15;9.30;99.90
26655;DHT22;14278;50.784;4.630;2023-02-12T02:22:42;9.00;99.90
26655;DHT22;14278;50.784;4.630;2023-02-12T02:31:19;9.10;99.90
26655;DHT22;14278;50.784;4.630;2023-02-12T02:37:00;9.20;99.90
26655;DHT22;14278;50.784;4.630;2023-02-12T02:39:36;9.10;99.90
26655;DHT22;14278;50.784;4.630;2023-02-12T02:42:10;8.90;99.90
26655;DHT22;14278;50.784;4.630;2023-02-12T02:47:48;8.60;99.90
26655;DHT22;14278;50.784;4.630;2023-02-12T02:50:19;8.70;99.90
26655;DHT22;14278;50.784;4.630;2023-02-12T02:53:32;8.90;99.90
26655;DHT22;14278;50.784;4.630;2023-02-12T02:56:00;8.90;99.90
26655;DHT22;14278;50.784;4.630;2023-02-12T02:58:42;9.00;99.90
26655;DHT22;14278;50.784;4.630;2023-02-12T03:01:21;8.90;99.90
26655;DHT22;14278;50.784;4.630;2023-02-12T03:03:54;8.90;99.90
26655;DHT22;14278;50.784;4.630;2023-02-12T03:06:33;9.10;99.90
26655;DHT22;14278;50.784;4.630;2023-02-12T03:09:14;8.90;99.90
26655;DHT22;14278;50.784;4.630;2023-02-12T03:11:42;9.30;99.90
26655;DHT22;14278;50.784;4.630;2023-02-12T03:14:25;9.40;99.90
26655;DHT22;14278;50.784;4.630;2023-02-12T03:17:16;9.10;99.90
26655;DHT22;14278;50.784;4.630;2023-02-12T03:19:46;8.30;99.90
26655;DHT22;14278;50.784;4.630;2023-02-12T03:22:20;8.30;99.90
26655;DHT22;14278;50.784;4.630;2023-02-12T03:24:55;8.50;99.90
26655;DHT22;14278;50.784;4.630;2023-02-12T03:27:25;8.70;99.90
26655;DHT22;14278;50.784;4.630;2023-02-12T03:29:54;8.70;99.90
26655;DHT22;14278;50.784;4.630;2023-02-12T03:35:16;8.30;99.90
26655;DHT22;14278;50.784;4.630;2023-02-12T03:43:26;8.80;99.90
26655;DHT22;14278;50.784;4.630;2023-02-12T03:46:07;8.80;99.90
26655;DHT22;14278;50.784;4.630;2023-02-12T03:48:43;8.80;99.90
26655;DHT22;14278;50.784;4.630;2023-02-12T03:51:25;8.80;99.90
26655;DHT22;14278;50.784;4.630;2023-02-12T03:53:55;9.10;99.90
26655;DHT22;14278;50.784;4.630;2023-02-12T03:56:26;9.30;99.90
26655;DHT22;14278;50.784;4.630;2023-02-12T03:58:54;9.30;99.90
26655;DHT22;14278;50.784;4.630;2023-02-12T04:01:22;8.90;99.90
26655;DHT22;14278;50.784;4.630;2023-02-12T04:03:48;8.60;99.90
26655;DHT22;14278;50.784;4.630;2023-02-12T04:06:23;8.80;99.90
26655;DHT22;14278;50.784;4.630;2023-02-12T04:08:50;9.10;99.90
26655;DHT22;14278;50.784;4.630;2023-02-12T04:14:21;9.50;99.90
26655;DHT22;14278;50.784;4.630;2023-02-12T04:20:03;9.00;99.90
26655;DHT22;14278;50.784;4.630;2023-02-12T04:22:51;8.90;99.90
26655;DHT22;14278;50.784;4.630;2023-02-12T04:31:28;9.00;99.90
26655;DHT22;14278;50.784;4.630;2023-02-12T04:36:27;8.80;99.90
26655;DHT22;14278;50.784;4.630;2023-02-12T04:39:00;9.10;99.90
26655;DHT22;14278;50.784;4.630;2023-02-12T04:41:27;9.00;99.90
26655;DHT22;14278;50.784;4.630;2023-02-12T04:43:54;9.00;99.90
26655;DHT22;14278;50.784;4.630;2023-02-12T04:46:21;9.00;99.90
26655;DHT22;14278;50.784;4.630;2023-02-12T04:48:57;9.20;99.90
26655;DHT22;14278;50.784;4.630;2023-02-12T04:51:24;8.90;99.90
26655;DHT22;14278;50.784;4.630;2023-02-12T04:53:50;8.80;99.90
26655;DHT22;14278;50.784;4.630;2023-02-12T04:56:16;8.30;99.90
26655;DHT22;14278;50.784;4.630;2023-02-12T04:58:42;8.10;99.90
26655;DHT22;14278;50.784;4.630;2023-02-12T05:01:09;8.20;99.90
26655;DHT22;14278;50.784;4.630;2023-02-12T05:03:36;8.20;99.90
26655;DHT22;14278;50.784;4.630;2023-02-12T05:06:06;8.30;99.90
26655;DHT22;14278;50.784;4.630;2023-02-12T05:08:32;8.60;99.90
26655;DHT22;14278;50.784;4.630;2023-02-12T05:11:11;8.70;99.90
26655;DHT22;14278;50.784;4.630;2023-02-12T05:13:37;8.90;99.90
26655;DHT22;14278;50.784;4.630;2023-02-12T05:16:05;8.50;99.90
26655;DHT22;14278;50.784;4.630;2023-02-12T05:18:32;8.60;99.90
26655;DHT22;14278;50.784;4.630;2023-02-12T05:21:00;9.00;99.90
26655;DHT22;14278;50.784;4.630;2023-02-12T05:23:28;9.00;99.90
26655;DHT22;14278;50.784;4.630;2023-02-12T05:25:54;9.10;99.90
26655;DHT22;14278;50.784;4.630;2023-02-12T05:28:23;8.50;99.90
26655;DHT22;14278;50.784;4.630;2023-02-12T05:30:49;8.30;99.90
26655;DHT22;14278;50.784;4.630;2023-02-12T05:33:14;8.00;99.90
26655;DHT22;14278;50.784;4.630;2023-02-12T05:35:41;8.00;99.90
26655;DHT22;14278;50.784;4.630;2023-02-12T05:38:07;7.70;99.90
26655;DHT22;14278;50.784;4.630;2023-02-12T05:40:33;7.90;99.90
26655;DHT22;14278;50.784;4.630;2023-02-12T05:43:00;7.90;99.90
26655;DHT22;14278;50.784;4.630;2023-02-12T05:45:26;8.10;99.90
26655;DHT22;14278;50.784;4.630;2023-02-12T05:47:55;8.00;99.90
26655;DHT22;14278;50.784;4.630;2023-02-12T05:50:22;8.20;99.90
26655;DHT22;14278;50.784;4.630;2023-02-12T05:52:48;8.40;99.90
26655;DHT22;14278;50.784;4.630;2023-02-12T05:55:14;8.20;99.90
26655;DHT22;14278;50.784;4.630;2023-02-12T05:57:40;7.90;99.90
26655;DHT22;14278;50.784;4.630;2023-02-12T06:00:10;8.60;99.90
26655;DHT22;14278;50.784;4.630;2023-02-12T06:02:36;8.60;99.90
26655;DHT22;14278;50.784;4.630;2023-02-12T06:05:02;8.80;99.90
26655;DHT22;14278;50.784;4.630;2023-02-12T06:07:28;9.10;99.90
26655;DHT22;14278;50.784;4.630;2023-02-12T06:09:54;8.60;99.90
26655;DHT22;14278;50.784;4.630;2023-02-12T06:12:20;8.00;99.90
26655;DHT22;14278;50.784;4.630;2023-02-12T06:14:46;8.00;99.90
26655;DHT22;14278;50.784;4.630;2023-02-12T06:17:12;8.20;99.90
26655;DHT22;14278;50.784;4.630;2023-02-12T06:19:38;8.00;99.90
26655;DHT22;14278;50.784;4.630;2023-02-12T06:22:04;8.50;99.90
26655;DHT22;14278;50.784;4.630;2023-02-12T06:24:31;8.40;99.90
26655;DHT22;14278;50.784;4.630;2023-02-12T06:26:57;8.40;99.90
26655;DHT22;14278;50.784;4.630;2023-02-12T06:29:23;8.40;99.90
26655;DHT22;14278;50.784;4.630;2023-02-12T06:31:49;8.40;99.90
26655;DHT22;14278;50.784;4.630;2023-02-12T06:34:15;7.70;99.90
26655;DHT22;14278;50.784;4.630;2023-02-12T06:36:44;7.70;99.90
26655;DHT22;14278;50.784;4.630;2023-02-12T06:39:12;8.10;99.90
26655;DHT22;14278;50.784;4.630;2023-02-12T06:41:39;8.70;99.90
26655;DHT22;14278;50.784;4.630;2023-02-12T06:44:05;8.70;99.90
26655;DHT22;14278;50.784;4.630;2023-02-12T06:46:31;8.70;99.90
26655;DHT22;14278;50.784;4.630;2023-02-12T06:48:59;8.40;99.90
26655;DHT22;14278;50.784;4.630;2023-02-12T06:51:27;8.20;99.90
26655;DHT22;14278;50.784;4.630;2023-02-12T06:53:54;8.30;99.90
26655;DHT22;14278;50.784;4.630;2023-02-12T06:56:21;8.10;99.90
26655;DHT22;14278;50.784;4.630;2023-02-12T06:58:53;8.20;99.90
26655;DHT22;14278;50.784;4.630;2023-02-12T07:01:22;8.40;99.90
26655;DHT22;14278;50.784;4.630;2023-02-12T07:03:50;8.30;99.90
26655;DHT22;14278;50.784;4.630;2023-02-12T07:06:17;8.40;99.90
26655;DHT22;14278;50.784;4.630;2023-02-12T07:08:43;8.40;99.90
26655;DHT22;14278;50.784;4.630;2023-02-12T07:11:10;8.10;99.90
26655;DHT22;14278;50.784;4.630;2023-02-12T07:13:36;7.60;99.90
26655;DHT22;14278;50.784;4.630;2023-02-12T07:16:09;7.50;99.90
26655;DHT22;14278;50.784;4.630;2023-02-12T07:18:37;7.90;99.90
26655;DHT22;14278;50.784;4.630;2023-02-12T07:21:04;7.70;99.90
26655;DHT22;14278;50.784;4.630;2023-02-12T07:23:31;7.80;99.90
26655;DHT22;14278;50.784;4.630;2023-02-12T07:26:02;7.90;99.90
26655;DHT22;14278;50.784;4.630;2023-02-12T07:28:29;7.70;99.90
26655;DHT22;14278;50.784;4.630;2023-02-12T07:30:58;8.00;99.90
26655;DHT22;14278;50.784;4.630;2023-02-12T07:33:24;8.20;99.90
26655;DHT22;14278;50.784;4.630;2023-02-12T07:35:50;8.20;99.90
26655;DHT22;14278;50.784;4.630;2023-02-12T07:38:17;8.30;99.90
26655;DHT22;14278;50.784;4.630;2023-02-12T07:40:43;8.10;99.90
26655;DHT22;14278;50.784;4.630;2023-02-12T07:43:09;7.90;99.90
26655;DHT22;14278;50.784;4.630;2023-02-12T07:45:35;8.20;99.90
26655;DHT22;14278;50.784;4.630;2023-02-12T07:48:01;8.20;99.90
26655;DHT22;14278;50.784;4.630;2023-02-12T07:50:30;8.50;99.90
26655;DHT22;14278;50.784;4.630;2023-02-12T07:52:55;8.60;99.90
26655;DHT22;14278;50.784;4.630;2023-02-12T07:55:22;8.60;99.90
26655;DHT22;14278;50.784;4.630;2023-02-12T07:57:48;8.30;99.90
26655;DHT22;14278;50.784;4.630;2023-02-12T08:00:14;8.50;99.90
26655;DHT22;14278;50.784;4.630;2023-02-12T08:02:40;9.20;99.90
26655;DHT22;14278;50.784;4.630;2023-02-12T08:05:09;8.90;99.90
26655;DHT22;14278;50.784;4.630;2023-02-12T08:07:35;8.10;99.90
26655;DHT22;14278;50.784;4.630;2023-02-12T08:10:01;8.00;99.90
26655;DHT22;14278;50.784;4.630;2023-02-12T08:12:27;8.20;99.90
26655;DHT22;14278;50.784;4.630;2023-02-12T08:14:53;8.60;99.90
26655;DHT22;14278;50.784;4.630;2023-02-12T08:17:19;8.30;99.90
26655;DHT22;14278;50.784;4.630;2023-02-12T08:19:45;8.10;99.90
26655;DHT22;14278;50.784;4.630;2023-02-12T08:22:12;8.50;99.90
26655;DHT22;14278;50.784;4.630;2023-02-12T08:24:37;8.80;99.90
26655;DHT22;14278;50.784;4.630;2023-02-12T08:27:04;8.80;99.90
26655;DHT22;14278;50.784;4.630;2023-02-12T08:29:30;8.60;99.90
26655;DHT22;14278;50.784;4.630;2023-02-12T08:31:59;8.90;99.90
26655;DHT22;14278;50.784;4.630;2023-02-12T08:34:30;9.30;99.90
26655;DHT22;14278;50.784;4.630;2023-02-12T08:36:59;9.00;99.90
26655;DHT22;14278;50.784;4.630;2023-02-12T08:39:27;8.70;99.90
26655;DHT22;14278;50.784;4.630;2023-02-12T08:41:54;8.90;99.90
26655;DHT22;14278;50.784;4.630;2023-02-12T08:44:26;9.20;99.90
26655;DHT22;14278;50.784;4.630;2023-02-12T08:46:53;9.40;99.90
26655;DHT22;14278;50.784;4.630;2023-02-12T08:49:25;9.40;99.90
26655;DHT22;14278;50.784;4.630;2023-02-12T08:51:54;9.60;99.90
26655;DHT22;14278;50.784;4.630;2023-02-12T08:54:22;9.70;99.90
26655;DHT22;14278;50.784;4.630;2023-02-12T08:56:50;9.40;99.90
26655;DHT22;14278;50.784;4.630;2023-02-12T08:59:18;9.50;99.90
26655;DHT22;14278;50.784;4.630;2023-02-12T09:01:44;9.50;99.90
26655;DHT22;14278;50.784;4.630;2023-02-12T09:04:20;9.40;99.90
26655;DHT22;14278;50.784;4.630;2023-02-12T09:06:48;9.70;99.90
26655;DHT22;14278;50.784;4.630;2023-02-12T09:09:15;10.00;99.90
26655;DHT22;14278;50.784;4.630;2023-02-12T09:11:41;10.00;99.90
26655;DHT22;14278;50.784;4.630;2023-02-12T09:14:11;10.00;99.90
26655;DHT22;14278;50.784;4.630;2023-02-12T09:16:38;10.10;99.90
26655;DHT22;14278;50.784;4.630;2023-02-12T09:19:05;10.20;99.90
26655;DHT22;14278;50.784;4.630;2023-02-12T09:21:32;10.20;99.90
26655;DHT22;14278;50.784;4.630;2023-02-12T09:23:58;10.30;99.90
26655;DHT22;14278;50.784;4.630;2023-02-12T09:26:25;9.80;99.90
26655;DHT22;14278;50.784;4.630;2023-02-12T09:28:52;9.30;99.90
26655;DHT22;14278;50.784;4.630;2023-02-12T09:31:23;9.70;99.90
26655;DHT22;14278;50.784;4.630;2023-02-12T09:33:52;10.00;99.90
26655;DHT22;14278;50.784;4.630;2023-02-12T09:36:18;9.90;99.90
26655;DHT22;14278;50.784;4.630;2023-02-12T09:38:44;9.70;99.90
26655;DHT22;14278;50.784;4.630;2023-02-12T09:44:38;10.10;99.90
26655;DHT22;14278;50.784;4.630;2023-02-12T09:47:31;10.30;99.90
26655;DHT22;14278;50.784;4.630;2023-02-12T09:52:36;10.10;99.90
26655;DHT22;14278;50.784;4.630;2023-02-12T09:55:03;10.50;99.90
26655;DHT22;14278;50.784;4.630;2023-02-12T09:57:30;10.80;99.90
26655;DHT22;14278;50.784;4.630;2023-02-12T10:02:33;11.10;99.90
26655;DHT22;14278;50.784;4.630;2023-02-12T10:05:00;11.20;99.90
26655;DHT22;14278;50.784;4.630;2023-02-12T10:19:17;10.50;99.90
26655;DHT22;14278;50.784;4.630;2023-02-12T10:24:47;10.70;99.90
26655;DHT22;14278;50.784;4.630;2023-02-12T10:27:23;11.00;99.90
26655;DHT22;14278;50.784;4.630;2023-02-12T10:29:52;11.00;99.90
26655;DHT22;14278;50.784;4.630;2023-02-12T10:32:25;10.50;99.90
26655;DHT22;14278;50.784;4.630;2023-02-12T10:34:53;10.60;99.90
26655;DHT22;14278;50.784;4.630;2023-02-12T10:37:34;11.10;99.90
26655;DHT22;14278;50.784;4.630;2023-02-12T10:40:27;11.50;99.90
26655;DHT22;14278;50.784;4.630;2023-02-12T10:42:58;11.20;99.90
26655;DHT22;14278;50.784;4.630;2023-02-12T10:45:31;11.00;99.90
26655;DHT22;14278;50.784;4.630;2023-02-12T10:48:23;11.10;99.90
26655;DHT22;14278;50.784;4.630;2023-02-12T10:51:14;10.90;99.90
26655;DHT22;14278;50.784;4.630;2023-02-12T10:53:46;10.90;99.90
26655;DHT22;14278;50.784;4.630;2023-02-12T10:56:20;10.50;99.90
26655;DHT22;14278;50.784;4.630;2023-02-12T11:01:19;11.10;99.90
26655;DHT22;14278;50.784;4.630;2023-02-12T11:03:45;9.70;99.90
26655;DHT22;14278;50.784;4.630;2023-02-12T11:06:14;10.20;99.90
26655;DHT22;14278;50.784;4.630;2023-02-12T11:08:41;10.10;99.90
26655;DHT22;14278;50.784;4.630;2023-02-12T11:11:09;10.00;99.90
26655;DHT22;14278;50.784;4.630;2023-02-12T11:13:37;9.80;99.90
26655;DHT22;14278;50.784;4.630;2023-02-12T11:16:06;10.30;99.90
26655;DHT22;14278;50.784;4.630;2023-02-12T11:18:33;10.20;99.90
26655;DHT22;14278;50.784;4.630;2023-02-12T11:21:05;10.30;99.90
26655;DHT22;14278;50.784;4.630;2023-02-12T11:23:40;9.40;99.90
26655;DHT22;14278;50.784;4.630;2023-02-12T11:29:02;10.00;99.90
26655;DHT22;14278;50.784;4.630;2023-02-12T11:31:42;10.60;99.90
26655;DHT22;14278;50.784;4.630;2023-02-12T11:34:23;11.20;99.90
26655;DHT22;14278;50.784;4.630;2023-02-12T11:36:51;11.00;99.90
26655;DHT22;14278;50.784;4.630;2023-02-12T11:39:36;10.50;99.90
26655;DHT22;14278;50.784;4.630;2023-02-12T11:42:13;10.30;99.90
26655;DHT22;14278;50.784;4.630;2023-02-12T11:44:46;9.90;99.90
26655;DHT22;14278;50.784;4.630;2023-02-12T11:47:27;9.80;99.90
26655;DHT22;14278;50.784;4.630;2023-02-12T11:50:03;9.70;99.90
26655;DHT22;14278;50.784;4.630;2023-02-12T11:52:35;10.50;99.90
26655;DHT22;14278;50.784;4.630;2023-02-12T11:55:17;10.70;99.90
26655;DHT22;14278;50.784;4.630;2023-02-12T11:57:46;10.70;99.90
26655;DHT22;14278;50.784;4.630;2023-02-12T12:00:28;10.80;99.90
26655;DHT22;14278;50.784;4.630;2023-02-12T12:05:34;10.90;99.90
26655;DHT22;14278;50.784;4.630;2023-02-12T12:08:10;10.40;99.90
26655;DHT22;14278;50.784;4.630;2023-02-12T12:10:45;10.70;99.90
26655;DHT22;14278;50.784;4.630;2023-02-12T12:13:16;10.70;99.90
26655;DHT22;14278;50.784;4.630;2023-02-12T12:15:46;11.20;99.90
26655;DHT22;14278;50.784;4.630;2023-02-12T12:18:45;11.60;99.90
26655;DHT22;14278;50.784;4.630;2023-02-12T12:21:38;12.00;99.90
26655;DHT22;14278;50.784;4.630;2023-02-12T12:24:14;11.30;99.90
26655;DHT22;14278;50.784;4.630;2023-02-12T12:26:46;11.50;99.90
26655;DHT22;14278;50.784;4.630;2023-02-12T12:29:25;11.10;99.90
26655;DHT22;14278;50.784;4.630;2023-02-12T12:32:00;11.40;99.90
26655;DHT22;14278;50.784;4.630;2023-02-12T12:34:28;11.70;99.90
26655;DHT22;14278;50.784;4.630;2023-02-12T12:37:00;11.60;99.90
26655;DHT22;14278;50.784;4.630;2023-02-12T12:39:46;11.70;99.90
26655;DHT22;14278;50.784;4.630;2023-02-12T12:48:10;12.40;99.90
26655;DHT22;14278;50.784;4.630;2023-02-12T12:50:59;12.30;99.90
26655;DHT22;14278;50.784;4.630;2023-02-12T12:56:48;11.00;99.90
26655;DHT22;14278;50.784;4.630;2023-02-12T13:13:08;11.20;99.90
26655;DHT22;14278;50.784;4.630;2023-02-12T13:26:36;10.70;99.90
26655;DHT22;14278;50.784;4.630;2023-02-12T13:29:30;10.50;99.90
26655;DHT22;14278;50.784;4.630;2023-02-12T13:32:04;10.40;99.90
26655;DHT22;14278;50.784;4.630;2023-02-12T13:34:33;10.70;99.90
26655;DHT22;14278;50.784;4.630;2023-02-12T13:37:00;10.60;99.90
26655;DHT22;14278;50.784;4.630;2023-02-12T13:39:44;10.40;99.90
26655;DHT22;14278;50.784;4.630;2023-02-12T13:48:12;10.70;99.90
26655;DHT22;14278;50.784;4.630;2023-02-12T13:50:52;11.20;99.90
26655;DHT22;14278;50.784;4.630;2023-02-12T13:53:44;11.20;99.90
26655;DHT22;14278;50.784;4.630;2023-02-12T13:59:00;11.20;99.90
26655;DHT22;14278;50.784;4.630;2023-02-12T14:01:39;11.10;99.90
26655;DHT22;14278;50.784;4.630;2023-02-12T14:07:04;10.30;99.90
26655;DHT22;14278;50.784;4.630;2023-02-12T14:12:00;9.70;99.90
26655;DHT22;14278;50.784;4.630;2023-02-12T14:14:33;9.90;99.90
26655;DHT22;14278;50.784;4.630;2023-02-12T14:25:04;9.60;99.90
26655;DHT22;14278;50.784;4.630;2023-02-12T14:27:48;10.40;99.90
26655;DHT22;14278;50.784;4.630;2023-02-12T14:37:57;10.40;99.90
26655;DHT22;14278;50.784;4.630;2023-02-12T14:40:46;10.20;99.90
26655;DHT22;14278;50.784;4.630;2023-02-12T14:43:35;10.20;99.90
26655;DHT22;14278;50.784;4.630;2023-02-12T14:49:24;10.50;99.90
26655;DHT22;14278;50.784;4.630;2023-02-12T14:51:59;10.40;99.90
26655;DHT22;14278;50.784;4.630;2023-02-12T14:57:00;10.70;99.90
26655;DHT22;14278;50.784;4.630;2023-02-12T14:59:32;10.90;99.90
26655;DHT22;14278;50.784;4.630;2023-02-12T15:02:00;11.30;99.90
26655;DHT22;14278;50.784;4.630;2023-02-12T15:04:29;10.90;99.90
26655;DHT22;14278;50.784;4.630;2023-02-12T15:07:02;10.90;99.90
26655;DHT22;14278;50.784;4.630;2023-02-12T15:09:49;10.70;99.90
26655;DHT22;14278;50.784;4.630;2023-02-12T15:15:30;10.40;99.90
26655;DHT22;14278;50.784;4.630;2023-02-12T15:18:10;9.80;99.90
26655;DHT22;14278;50.784;4.630;2023-02-12T15:20:45;10.00;99.90
26655;DHT22;14278;50.784;4.630;2023-02-12T15:23:38;10.20;99.90
26655;DHT22;14278;50.784;4.630;2023-02-12T15:26:08;10.40;99.90
26655;DHT22;14278;50.784;4.630;2023-02-12T15:28:38;10.20;99.90
26655;DHT22;14278;50.784;4.630;2023-02-12T15:31:08;9.60;99.90
26655;DHT22;14278;50.784;4.630;2023-02-12T15:33:39;9.30;99.90
26655;DHT22;14278;50.784;4.630;2023-02-12T15:36:08;9.20;99.90
26655;DHT22;14278;50.784;4.630;2023-02-12T15:38:39;9.50;99.90
26655;DHT22;14278;50.784;4.630;2023-02-12T15:41:24;9.50;99.90
26655;DHT22;14278;50.784;4.630;2023-02-12T15:43:50;9.50;99.90
26655;DHT22;14278;50.784;4.630;2023-02-12T15:46:17;9.80;99.90
26655;DHT22;14278;50.784;4.630;2023-02-12T15:48:44;9.80;99.90
26655;DHT22;14278;50.784;4.630;2023-02-12T15:53:39;10.00;99.90
26655;DHT22;14278;50.784;4.630;2023-02-12T15:56:12;9.80;99.90
26655;DHT22;14278;50.784;4.630;2023-02-12T15:58:49;9.60;99.90
26655;DHT22;14278;50.784;4.630;2023-02-12T16:01:22;9.20;99.90
26655;DHT22;14278;50.784;4.630;2023-02-12T16:03:53;9.10;99.90
26655;DHT22;14278;50.784;4.630;2023-02-12T16:06:21;9.00;99.90
26655;DHT22;14278;50.784;4.630;2023-02-12T16:11:44;9.50;99.90
26655;DHT22;14278;50.784;4.630;2023-02-12T16:14:22;9.60;99.90
26655;DHT22;14278;50.784;4.630;2023-02-12T16:16:57;9.60;99.90
26655;DHT22;14278;50.784;4.630;2023-02-12T16:19:28;9.50;99.90
26655;DHT22;14278;50.784;4.630;2023-02-12T16:24:35;9.50;99.90
26655;DHT22;14278;50.784;4.630;2023-02-12T16:27:22;9.50;99.90
26655;DHT22;14278;50.784;4.630;2023-02-12T16:29:52;9.50;99.90
26655;DHT22;14278;50.784;4.630;2023-02-12T16:32:41;9.70;99.90
26655;DHT22;14278;50.784;4.630;2023-02-12T16:47:59;9.70;99.90
26655;DHT22;14278;50.784;4.630;2023-02-12T16:50:29;9.70;99.90
26655;DHT22;14278;50.784;4.630;2023-02-12T16:53:05;9.50;99.90
26655;DHT22;14278;50.784;4.630;2023-02-12T16:55:32;9.80;99.90
26655;DHT22;14278;50.784;4.630;2023-02-12T16:58:01;10.00;99.90
26655;DHT22;14278;50.784;4.630;2023-02-12T17:00:27;10.00;99.90
26655;DHT22;14278;50.784;4.630;2023-02-12T17:02:54;10.20;99.90
26655;DHT22;14278;50.784;4.630;2023-02-12T17:05:21;10.40;99.90
26655;DHT22;14278;50.784;4.630;2023-02-12T17:07:48;9.90;99.90
26655;DHT22;14278;50.784;4.630;2023-02-12T17:10:16;9.80;99.90
26655;DHT22;14278;50.784;4.630;2023-02-12T17:12:46;9.90;99.90
26655;DHT22;14278;50.784;4.630;2023-02-12T17:15:29;9.50;99.90
26655;DHT22;14278;50.784;4.630;2023-02-12T17:17:58;9.60;99.90
26655;DHT22;14278;50.784;4.630;2023-02-12T17:20:24;10.00;99.90
26655;DHT22;14278;50.784;4.630;2023-02-12T17:22:53;10.20;99.90
26655;DHT22;14278;50.784;4.630;2023-02-12T17:25:22;10.30;99.90
26655;DHT22;14278;50.784;4.630;2023-02-12T17:27:49;10.50;99.90
26655;DHT22;14278;50.784;4.630;2023-02-12T17:30:16;10.50;99.90
26655;DHT22;14278;50.784;4.630;2023-02-12T17:32:43;10.30;99.90
26655;DHT22;14278;50.784;4.630;2023-02-12T17:35:09;10.10;99.90
26655;DHT22;14278;50.784;4.630;2023-02-12T17:37:34;10.10;99.90
26655;DHT22;14278;50.784;4.630;2023-02-12T17:40:04;10.10;99.90
26655;DHT22;14278;50.784;4.630;2023-02-12T17:42:33;10.10;99.90
26655;DHT22;14278;50.784;4.630;2023-02-12T17:45:02;10.30;99.90
26655;DHT22;14278;50.784;4.630;2023-02-12T17:47:31;10.20;99.90
26655;DHT22;14278;50.784;4.630;2023-02-12T17:52:43;9.90;99.90
26655;DHT22;14278;50.784;4.630;2023-02-12T17:55:13;9.60;99.90
26655;DHT22;14278;50.784;4.630;2023-02-12T17:57:40;9.60;99.90
26655;DHT22;14278;50.784;4.630;2023-02-12T18:00:11;9.40;99.90
26655;DHT22;14278;50.784;4.630;2023-02-12T18:02:37;9.50;99.90
26655;DHT22;14278;50.784;4.630;2023-02-12T18:05:06;9.40;99.90
26655;DHT22;14278;50.784;4.630;2023-02-12T18:07:34;9.20;99.90
26655;DHT22;14278;50.784;4.630;2023-02-12T18:10:04;9.40;99.90
26655;DHT22;14278;50.784;4.630;2023-02-12T18:12:31;9.60;99.90
26655;DHT22;14278;50.784;4.630;2023-02-12T18:14:58;10.00;99.90
26655;DHT22;14278;50.784;4.630;2023-02-12T18:17:24;10.20;99.90
26655;DHT22;14278;50.784;4.630;2023-02-12T18:19:51;9.80;99.90
26655;DHT22;14278;50.784;4.630;2023-02-12T18:22:17;9.90;99.90
26655;DHT22;14278;50.784;4.630;2023-02-12T18:24:43;9.80;99.90
26655;DHT22;14278;50.784;4.630;2023-02-12T18:27:11;9.70;99.90
26655;DHT22;14278;50.784;4.630;2023-02-12T18:29:37;9.90;99.90
26655;DHT22;14278;50.784;4.630;2023-02-12T18:32:11;9.90;99.90
26655;DHT22;14278;50.784;4.630;2023-02-12T18:34:43;9.60;99.90
26655;DHT22;14278;50.784;4.630;2023-02-12T18:37:11;9.40;99.90
26655;DHT22;14278;50.784;4.630;2023-02-12T18:39:37;9.60;99.90
26655;DHT22;14278;50.784;4.630;2023-02-12T18:42:06;9.20;99.90
26655;DHT22;14278;50.784;4.630;2023-02-12T18:44:32;9.30;99.90
26655;DHT22;14278;50.784;4.630;2023-02-12T18:46:59;9.30;99.90
26655;DHT22;14278;50.784;4.630;2023-02-12T18:49:28;9.20;99.90